createdAt,value
2022-11-25T00:00:36.626Z,61.26
2022-11-25T00:03:06.329Z,60.71
2022-11-25T00:05:37.396Z,60.18
2022-11-25T00:08:06.955Z,60.88
2022-11-25T00:10:36.557Z,60.91
2022-11-25T00:13:06.884Z,60.46
2022-11-25T00:15:36.938Z,60.54
2022-11-25T00:18:06.446Z,60.76
2022-11-25T00:20:38.158Z,60.36
2022-11-25T00:23:07.619Z,60.16
2022-11-25T00:25:37.299Z,60.58
2022-11-25T00:28:06.865Z,60.62
2022-11-25T00:30:36.393Z,61.37
2022-11-25T00:33:05.898Z,60.70
2022-11-25T00:35:37.164Z,60.78
2022-11-25T00:38:06.864Z,61.09
2022-11-25T00:40:36.452Z,60.40
2022-11-25T00:43:23.248Z,60.60
2022-11-25T00:45:52.886Z,61.07
2022-11-25T00:48:22.412Z,61.05
2022-11-25T00:50:53.352Z,60.86
2022-11-25T00:53:22.839Z,61.12
2022-11-25T00:56:09.919Z,60.77
2022-11-25T00:58:39.728Z,60.54
2022-11-25T01:01:09.348Z,61.20
2022-11-25T01:03:39.426Z,60.66
2022-11-25T01:06:11.338Z,60.91
2022-11-25T01:08:41.025Z,61.17
2022-11-25T01:11:13.612Z,60.56
2022-11-25T01:13:43.730Z,60.95
2022-11-25T01:16:15.601Z,61.11
2022-11-25T01:18:45.359Z,60.96
2022-11-25T01:21:17.117Z,60.60
2022-11-25T01:23:47.045Z,60.19
2022-11-25T01:26:17.387Z,61.15
2022-11-25T01:28:47.790Z,60.50
2022-11-25T01:31:18.617Z,60.40
2022-11-25T01:33:48.943Z,60.42
2022-11-25T01:36:19.820Z,60.13
2022-11-25T01:38:51.681Z,59.84
2022-11-25T01:41:21.986Z,59.21
2022-11-25T01:44:05.321Z,59.52
2022-11-25T01:46:42.038Z,59.84
2022-11-25T01:49:14.509Z,58.72
2022-11-25T01:51:47.578Z,59.44
2022-11-25T01:54:19.527Z,58.76
2022-11-25T01:56:51.954Z,59.18
2022-11-25T01:59:21.697Z,58.87
2022-11-25T02:01:51.248Z,59.07
2022-11-25T02:04:21.369Z,59.47
2022-11-25T02:06:55.349Z,58.25
2022-11-25T02:09:24.996Z,58.86
2022-11-25T02:11:55.265Z,58.57
2022-11-25T02:14:26.401Z,58.47
2022-11-25T02:16:56.679Z,58.72
2022-11-25T02:19:30.900Z,58.03
2022-11-25T02:22:04.121Z,59.12
2022-11-25T02:24:37.100Z,58.74
2022-11-25T02:27:08.353Z,59.08
2022-11-25T02:29:39.203Z,58.44
2022-11-25T02:32:08.746Z,58.09
2022-11-25T02:34:47.127Z,58.09
2022-11-25T02:37:18.952Z,57.63
2022-11-25T02:39:48.859Z,58.59
2022-11-25T02:42:21.308Z,58.26
2022-11-25T02:44:50.867Z,58.20
2022-11-25T02:47:20.554Z,58.54
2022-11-25T02:49:50.133Z,57.85
2022-11-25T02:52:19.653Z,58.81
2022-11-25T02:54:49.427Z,58.68
2022-11-25T02:57:20.217Z,58.81
2022-11-25T02:59:49.853Z,59.40
2022-11-25T03:02:19.503Z,59.67
2022-11-25T03:04:49.202Z,59.58
2022-11-25T03:07:18.701Z,59.84
2022-11-25T03:09:48.237Z,59.48
2022-11-25T03:12:20.798Z,59.17
2022-11-25T03:14:52.085Z,59.53
2022-11-25T03:17:21.913Z,60.10
2022-11-25T03:19:51.420Z,59.54
2022-11-25T03:22:20.999Z,60.18
2022-11-25T03:24:50.564Z,59.68
2022-11-25T03:27:20.068Z,60.25
2022-11-25T03:29:49.713Z,59.99
2022-11-25T03:32:20.579Z,60.24
2022-11-25T03:34:50.235Z,61.07
2022-11-25T03:37:19.927Z,60.74
2022-11-25T03:39:49.497Z,60.58
2022-11-25T03:42:19.073Z,59.83
2022-11-25T03:44:48.672Z,60.46
2022-11-25T03:47:18.160Z,60.89
2022-11-25T03:49:49.306Z,59.93
2022-11-25T03:52:18.836Z,60.07
2022-11-25T03:54:48.324Z,59.95
2022-11-25T03:57:18.349Z,60.07
2022-11-25T03:59:47.927Z,59.68
2022-11-25T04:02:17.493Z,60.35
2022-11-25T04:04:47.082Z,59.98
2022-11-25T04:07:18.146Z,59.90
2022-11-25T04:09:48.042Z,60.18
2022-11-25T04:12:35.281Z,59.45
2022-11-25T04:15:05.569Z,60.47
2022-11-25T04:17:35.639Z,59.66
2022-11-25T04:20:05.635Z,58.98
2022-11-25T04:22:36.558Z,59.08
2022-11-25T04:25:06.814Z,59.00
2022-11-25T04:27:36.444Z,58.94
2022-11-25T04:30:06.609Z,58.26
2022-11-25T04:32:37.917Z,58.72
2022-11-25T04:35:08.087Z,59.27
2022-11-25T04:37:39.203Z,58.71
2022-11-25T04:40:09.547Z,58.33
2022-11-25T04:42:39.821Z,58.89
2022-11-25T04:45:26.169Z,59.31
2022-11-25T04:47:55.888Z,58.40
2022-11-25T04:50:25.815Z,58.44
2022-11-25T04:52:56.880Z,57.81
2022-11-25T04:55:26.390Z,57.85
2022-11-25T04:57:55.939Z,57.25
2022-11-25T05:00:24.509Z,57.06
2022-11-25T05:02:54.132Z,58.22
2022-11-25T05:05:23.708Z,57.03
2022-11-25T05:07:53.344Z,57.46
2022-11-25T05:10:24.734Z,57.30
2022-11-25T05:12:55.508Z,57.33
2022-11-25T05:15:25.541Z,57.80
2022-11-25T05:17:55.252Z,56.89
2022-11-25T05:20:24.899Z,56.55
2022-11-25T05:22:54.378Z,56.74
2022-11-25T05:25:26.818Z,57.39
2022-11-25T05:27:56.645Z,56.02
2022-11-25T05:30:26.131Z,56.64
2022-11-25T05:32:55.988Z,56.50
2022-11-25T05:35:25.584Z,56.35
2022-11-25T05:37:55.181Z,56.82
2022-11-25T05:40:26.087Z,56.08
2022-11-25T05:42:55.568Z,56.79
2022-11-25T05:45:25.111Z,56.78
2022-11-25T05:47:55.931Z,56.72
2022-11-25T05:50:25.498Z,56.52
2022-11-25T05:52:54.982Z,57.18
2022-11-25T05:55:24.473Z,56.46
2022-11-25T05:57:55.440Z,56.81
2022-11-25T06:00:26.763Z,56.85
2022-11-25T06:02:57.033Z,57.32
2022-11-25T06:05:26.716Z,56.66
2022-11-25T06:07:56.410Z,56.22
2022-11-25T06:10:25.967Z,55.92
2022-11-25T06:12:57.055Z,56.02
2022-11-25T06:15:26.719Z,56.08
2022-11-25T06:17:56.879Z,56.06
2022-11-25T06:20:27.167Z,55.83
2022-11-25T06:22:56.773Z,55.99
2022-11-25T06:25:27.416Z,56.29
2022-11-25T06:28:12.461Z,55.94
2022-11-25T06:30:42.508Z,56.56
2022-11-25T06:33:12.047Z,56.54
2022-11-25T06:35:41.638Z,55.86
2022-11-25T06:38:11.242Z,56.16
2022-11-25T06:40:40.760Z,55.58
2022-11-25T06:43:11.619Z,55.84
2022-11-25T06:45:41.123Z,55.77
2022-11-25T06:48:11.538Z,55.71
2022-11-25T06:50:41.069Z,56.45
2022-11-25T06:53:10.566Z,56.47
2022-11-25T06:55:40.276Z,56.27
2022-11-25T06:58:34.425Z,56.00
2022-11-25T07:01:04.895Z,55.66
2022-11-25T07:03:34.861Z,56.22
2022-11-25T07:06:05.020Z,56.08
2022-11-25T07:08:34.734Z,55.90
2022-11-25T07:11:05.537Z,56.39
2022-11-25T07:13:36.873Z,56.24
2022-11-25T07:16:07.830Z,55.88
2022-11-25T07:18:38.174Z,56.28
2022-11-25T07:21:08.603Z,56.35
2022-11-25T07:23:39.196Z,56.47
2022-11-25T07:26:11.052Z,56.05
2022-11-25T07:28:42.498Z,55.97
2022-11-25T07:31:24.418Z,56.40
2022-11-25T07:33:55.828Z,56.07
2022-11-25T07:36:25.677Z,56.48
2022-11-25T07:38:55.268Z,55.60
2022-11-25T07:41:26.133Z,56.54
2022-11-25T07:43:57.844Z,56.46
2022-11-25T07:46:28.725Z,55.77
2022-11-25T07:48:59.072Z,55.21
2022-11-25T07:51:30.095Z,55.69
2022-11-25T07:54:00.663Z,55.18
2022-11-25T07:56:30.609Z,55.47
2022-11-25T07:59:01.527Z,55.40
2022-11-25T08:01:31.189Z,55.62
2022-11-25T08:04:00.722Z,55.13
2022-11-25T08:06:30.580Z,55.72
2022-11-25T08:09:00.369Z,55.71
2022-11-25T08:11:31.561Z,54.86
2022-11-25T08:14:03.587Z,55.05
2022-11-25T08:16:33.848Z,54.95
2022-11-25T08:19:05.629Z,54.80
2022-11-25T08:21:35.424Z,54.53
2022-11-25T08:24:05.436Z,54.97
2022-11-25T08:26:36.611Z,54.88
2022-11-25T08:29:07.985Z,54.13
2022-11-25T08:31:38.621Z,54.01
2022-11-25T08:34:08.409Z,53.90
2022-11-25T08:36:37.969Z,54.56
2022-11-25T08:39:28.771Z,53.37
2022-11-25T08:41:58.324Z,53.65
2022-11-25T08:44:30.038Z,53.49
2022-11-25T08:46:59.638Z,53.62
2022-11-25T08:49:32.771Z,53.94
2022-11-25T08:52:05.827Z,53.44
2022-11-25T08:54:35.642Z,53.22
2022-11-25T08:57:05.804Z,53.41
2022-11-25T08:59:37.048Z,53.37
2022-11-25T09:02:07.400Z,52.44
2022-11-25T09:04:37.096Z,52.23
2022-11-25T09:07:06.666Z,51.90
2022-11-25T09:09:36.874Z,51.80
2022-11-25T09:12:07.410Z,51.77
2022-11-25T09:14:40.538Z,51.38
2022-11-25T09:17:11.406Z,50.76
2022-11-25T09:19:41.322Z,50.89
2022-11-25T09:22:10.808Z,50.94
2022-11-25T09:24:41.749Z,51.37
2022-11-25T09:27:11.556Z,51.00
2022-11-25T09:29:42.695Z,51.34
2022-11-25T09:32:12.224Z,51.12
2022-11-25T09:34:41.808Z,51.10
2022-11-25T09:37:12.668Z,49.85
2022-11-25T09:39:42.197Z,50.25
2022-11-25T09:42:36.730Z,49.77
2022-11-25T09:45:35.017Z,50.19
2022-11-25T09:48:10.916Z,49.73
2022-11-25T09:50:44.038Z,50.22
2022-11-25T09:53:18.500Z,49.53
2022-11-25T09:55:48.804Z,49.52
2022-11-25T09:58:25.959Z,49.35
2022-11-25T10:00:57.025Z,48.70
2022-11-25T10:03:33.781Z,48.84
2022-11-25T10:06:06.201Z,48.02
2022-11-25T10:08:37.907Z,48.36
2022-11-25T10:11:15.305Z,48.09
2022-11-25T10:13:49.516Z,48.25
2022-11-25T10:16:30.046Z,47.58
2022-11-25T10:19:01.979Z,47.29
2022-11-25T10:21:31.502Z,47.17
2022-11-25T10:24:01.063Z,46.70
2022-11-25T10:26:36.888Z,46.52
2022-11-25T10:29:23.071Z,46.23
2022-11-25T10:31:56.408Z,45.89
2022-11-25T10:34:30.750Z,45.90
2022-11-25T10:37:02.449Z,46.06
2022-11-25T10:39:34.949Z,45.70
2022-11-25T10:42:08.136Z,45.60
2022-11-25T10:44:38.595Z,45.69
2022-11-25T10:47:16.744Z,45.17
2022-11-25T10:49:51.080Z,45.65
2022-11-25T10:52:23.843Z,45.11
2022-11-25T10:54:57.334Z,44.11
2022-11-25T10:57:28.610Z,43.78
2022-11-25T10:59:59.032Z,44.09
2022-11-25T11:02:30.810Z,44.40
2022-11-25T11:05:01.800Z,44.92
2022-11-25T11:07:34.248Z,44.31
2022-11-25T11:10:15.748Z,44.63
2022-11-25T11:12:55.697Z,43.98
2022-11-25T11:15:26.151Z,44.09
2022-11-25T11:17:58.090Z,44.01
2022-11-25T11:20:29.064Z,43.84
2022-11-25T11:23:07.044Z,43.98
2022-11-25T11:25:39.045Z,44.13
2022-11-25T11:28:23.409Z,44.67
2022-11-25T11:30:56.763Z,44.42
2022-11-25T11:33:36.673Z,44.38
2022-11-25T11:36:11.861Z,44.74
2022-11-25T11:38:44.340Z,45.06
2022-11-25T11:41:20.317Z,44.12
2022-11-25T11:44:02.379Z,43.69
2022-11-25T11:46:39.917Z,44.11
2022-11-25T11:49:30.721Z,44.32
2022-11-25T11:52:06.320Z,44.10
2022-11-25T11:54:40.089Z,43.57
2022-11-25T11:57:17.851Z,43.84
2022-11-25T11:59:49.906Z,43.89
2022-11-25T12:02:30.886Z,44.25
2022-11-25T12:05:06.188Z,43.51
2022-11-25T12:07:38.192Z,43.33
2022-11-25T12:10:11.354Z,42.60
2022-11-25T12:12:47.333Z,42.79
2022-11-25T12:15:18.968Z,42.62
2022-11-25T12:17:53.069Z,42.62
2022-11-25T12:20:31.241Z,42.56
2022-11-25T12:23:01.908Z,42.37
2022-11-25T12:25:33.643Z,42.30
2022-11-25T12:28:06.972Z,42.50
2022-11-25T12:30:39.650Z,42.74
2022-11-25T12:33:11.794Z,42.08
2022-11-25T12:35:47.298Z,42.08
2022-11-25T12:38:27.616Z,42.06
2022-11-25T12:41:02.374Z,42.12
2022-11-25T12:43:36.310Z,42.08
2022-11-25T12:46:14.319Z,42.06
2022-11-25T12:48:44.504Z,42.02
2022-11-25T12:51:21.000Z,41.80
2022-11-25T12:53:57.145Z,41.98
2022-11-25T12:56:28.689Z,42.03
2022-11-25T12:59:06.767Z,42.20
2022-11-25T13:01:58.125Z,42.07
2022-11-25T13:04:36.810Z,42.60
2022-11-25T13:07:33.872Z,42.44
2022-11-25T13:10:15.382Z,42.80
2022-11-25T13:12:50.966Z,43.29
2022-11-25T13:15:26.477Z,42.91
2022-11-25T13:17:59.061Z,42.62
2022-11-25T13:20:36.352Z,42.84
2022-11-25T13:23:10.298Z,42.81
2022-11-25T13:25:42.156Z,42.41
2022-11-25T13:28:26.822Z,42.31
2022-11-25T13:30:56.448Z,42.03
2022-11-25T13:33:44.838Z,41.83
2022-11-25T13:36:17.507Z,42.31
2022-11-25T13:39:02.309Z,42.75
2022-11-25T13:41:38.460Z,42.73
2022-11-25T13:44:15.191Z,42.65
2022-11-25T13:46:45.426Z,42.98
2022-11-25T13:49:23.309Z,43.15
2022-11-25T13:51:54.475Z,43.04
2022-11-25T13:54:26.840Z,43.06
2022-11-25T13:57:16.423Z,43.54
2022-11-25T13:59:56.813Z,43.73
2022-11-25T14:02:45.261Z,43.91
2022-11-25T14:05:32.743Z,44.51
2022-11-25T14:08:08.159Z,44.21
2022-11-25T14:10:45.695Z,44.05
2022-11-25T14:13:25.862Z,43.89
2022-11-25T14:16:07.272Z,43.70
2022-11-25T14:21:56.575Z,44.56
2022-11-25T14:24:40.921Z,44.48
2022-11-25T14:27:15.255Z,44.35
2022-11-25T14:29:47.865Z,44.96
2022-11-25T14:32:20.587Z,44.55
2022-11-25T14:34:54.025Z,44.69
2022-11-25T14:37:27.355Z,45.20
2022-11-25T14:39:59.352Z,45.17
2022-11-25T14:42:32.987Z,45.47
2022-11-25T14:45:04.233Z,45.69
2022-11-25T14:47:37.606Z,45.78
2022-11-25T14:53:06.545Z,46.76
2022-11-25T14:55:36.691Z,46.59
2022-11-25T14:58:06.432Z,46.60
2022-11-25T15:00:50.540Z,47.11
2022-11-25T15:03:21.172Z,47.14
2022-11-25T15:05:55.059Z,47.27
2022-11-25T15:08:25.518Z,47.68
2022-11-25T15:10:56.196Z,47.85
2022-11-25T15:13:30.555Z,47.80
2022-11-25T15:16:05.866Z,47.96
2022-11-25T15:18:35.979Z,48.50
2022-11-25T15:21:05.839Z,48.61
2022-11-25T15:23:37.513Z,48.67
2022-11-25T15:26:17.072Z,48.99
2022-11-25T15:28:46.892Z,49.70
2022-11-25T15:31:20.700Z,49.97
2022-11-25T15:33:54.599Z,49.65
2022-11-25T15:36:24.932Z,49.52
2022-11-25T15:38:54.937Z,49.37
2022-11-25T15:41:31.728Z,49.91
2022-11-25T15:44:03.001Z,49.29
2022-11-25T15:46:36.755Z,49.84
2022-11-25T15:49:07.549Z,50.33
2022-11-25T15:51:39.808Z,49.85
2022-11-25T15:54:16.013Z,50.03
2022-11-25T15:56:46.859Z,50.72
2022-11-25T15:59:35.299Z,50.39
2022-11-25T16:02:29.355Z,50.55
2022-11-25T16:05:10.254Z,50.96
2022-11-25T16:07:40.291Z,51.02
2022-11-25T16:10:17.340Z,50.72
2022-11-25T16:13:21.186Z,50.92
2022-11-25T16:15:53.668Z,51.35
2022-11-25T16:18:39.899Z,51.32
2022-11-25T16:21:11.609Z,50.91
2022-11-25T16:23:45.171Z,51.39
2022-11-25T16:26:16.915Z,51.33
2022-11-25T16:28:52.550Z,51.32
2022-11-25T16:31:22.672Z,51.88
2022-11-25T16:33:54.773Z,51.18
2022-11-25T16:36:24.338Z,51.52
2022-11-25T16:38:55.006Z,52.35
2022-11-25T16:41:25.774Z,52.29
2022-11-25T16:43:57.152Z,53.11
2022-11-25T16:46:28.910Z,53.08
2022-11-25T16:49:00.008Z,52.24
2022-11-25T16:51:29.569Z,52.57
2022-11-25T16:53:59.558Z,52.96
2022-11-25T16:56:29.799Z,52.78
2022-11-25T16:58:59.493Z,53.42
2022-11-25T17:01:29.590Z,53.37
2022-11-25T17:04:00.986Z,53.97
2022-11-25T17:06:31.314Z,53.42
2022-11-25T17:09:00.797Z,53.82
2022-11-25T17:11:31.766Z,53.91
2022-11-25T17:14:03.273Z,53.56
2022-11-25T17:16:33.355Z,54.12
2022-11-25T17:19:04.496Z,54.49
2022-11-25T17:21:34.118Z,54.60
2022-11-25T17:24:07.197Z,54.08
2022-11-25T17:26:37.908Z,53.79
2022-11-25T17:29:08.972Z,54.47
2022-11-25T17:31:38.902Z,54.45
2022-11-25T17:34:11.783Z,54.45
2022-11-25T17:36:41.339Z,54.56
2022-11-25T17:39:12.389Z,54.63
2022-11-25T17:41:43.796Z,54.69
2022-11-25T17:44:21.828Z,55.17
2022-11-25T17:46:52.079Z,55.78
2022-11-25T17:49:23.718Z,56.04
2022-11-25T17:51:53.283Z,55.74
2022-11-25T17:54:22.938Z,55.74
2022-11-25T17:56:52.806Z,55.74
2022-11-25T17:59:25.204Z,55.43
2022-11-25T18:01:56.152Z,56.10
2022-11-25T18:04:28.051Z,55.63
2022-11-25T18:06:57.631Z,55.40
2022-11-25T18:09:27.213Z,55.29
2022-11-25T18:11:59.121Z,56.41
2022-11-25T18:14:29.522Z,56.00
2022-11-25T18:17:01.766Z,55.85
2022-11-25T18:19:33.475Z,56.33
2022-11-25T18:22:10.313Z,56.65
2022-11-25T18:24:40.229Z,56.48
2022-11-25T18:27:11.972Z,57.20
2022-11-25T18:29:41.507Z,57.13
2022-11-25T18:32:11.117Z,57.18
2022-11-25T18:34:42.108Z,57.23
2022-11-25T18:37:12.517Z,56.75
2022-11-25T18:39:42.082Z,57.10
2022-11-25T18:42:19.632Z,56.97
2022-11-25T18:44:49.253Z,57.74
2022-11-25T18:47:19.014Z,57.46
2022-11-25T18:49:55.138Z,57.66
2022-11-25T18:52:25.716Z,57.50
2022-11-25T18:54:55.358Z,57.24
2022-11-25T18:57:24.994Z,57.11
2022-11-25T19:00:17.272Z,57.93
2022-11-25T19:02:44.240Z,58.23
2022-11-25T19:05:19.912Z,58.83
2022-11-25T19:07:51.151Z,58.78
2022-11-25T19:10:21.843Z,58.51
2022-11-25T19:12:54.208Z,58.17
2022-11-25T19:15:26.228Z,58.44
2022-11-25T19:17:57.571Z,58.34
2022-11-25T19:20:30.279Z,58.55
2022-11-25T19:23:01.093Z,59.53
2022-11-25T19:25:31.074Z,59.15
2022-11-25T19:28:02.383Z,59.01
2022-11-25T19:30:32.866Z,58.56
2022-11-25T19:33:03.211Z,59.66
2022-11-25T19:35:34.949Z,58.80
2022-11-25T19:38:08.629Z,59.27
2022-11-25T19:40:40.523Z,59.68
2022-11-25T19:43:10.725Z,59.24
2022-11-25T19:45:41.959Z,59.97
2022-11-25T19:48:14.950Z,60.40
2022-11-25T19:50:47.464Z,59.90
2022-11-25T19:53:18.740Z,59.70
2022-11-25T19:55:48.726Z,60.02
2022-11-25T19:58:18.416Z,59.99
2022-11-25T20:00:48.547Z,59.76
2022-11-25T20:03:20.519Z,60.30
2022-11-25T20:05:52.525Z,60.51
2022-11-25T20:08:23.117Z,60.71
2022-11-25T20:10:53.189Z,60.51
2022-11-25T20:13:26.153Z,60.93
2022-11-25T20:15:56.699Z,59.95
2022-11-25T20:18:27.302Z,60.46
2022-11-25T20:21:01.540Z,60.60
2022-11-25T20:23:38.577Z,60.56
2022-11-25T20:26:15.812Z,60.83
2022-11-25T20:28:45.678Z,61.13
2022-11-25T20:31:16.236Z,61.00
2022-11-25T20:33:47.793Z,61.21
2022-11-25T20:36:20.164Z,61.53
2022-11-25T20:38:50.511Z,61.19
2022-11-25T20:41:25.928Z,60.90
2022-11-25T20:43:57.849Z,60.80
2022-11-25T20:46:30.127Z,61.04
2022-11-25T20:49:01.702Z,61.70
2022-11-25T20:51:32.695Z,62.12
2022-11-25T20:54:02.475Z,61.53
2022-11-25T20:56:32.209Z,61.20
2022-11-25T20:59:01.789Z,62.27
2022-11-25T21:01:31.360Z,61.90
2022-11-25T21:04:01.423Z,62.44
2022-11-25T21:06:37.917Z,62.79
2022-11-25T21:09:16.286Z,62.21
2022-11-25T21:11:46.820Z,62.42
2022-11-25T21:14:18.058Z,61.57
2022-11-25T21:16:48.756Z,61.90
2022-11-25T21:19:18.613Z,61.76
2022-11-25T21:21:50.631Z,62.23
2022-11-25T21:24:29.425Z,62.73
2022-11-25T21:27:00.027Z,62.39
2022-11-25T21:29:30.270Z,61.84
2022-11-25T21:31:59.832Z,62.52
2022-11-25T21:34:29.359Z,61.94
2022-11-25T21:37:06.220Z,61.98
2022-11-25T21:39:35.908Z,61.81
2022-11-25T21:42:07.117Z,61.44
2022-11-25T21:44:38.727Z,62.43
2022-11-25T21:47:13.327Z,61.55
2022-11-25T21:49:43.241Z,62.23
2022-11-25T21:52:14.209Z,61.60
2022-11-25T21:54:44.088Z,61.36
2022-11-25T21:57:15.752Z,62.01
2022-11-25T21:59:45.827Z,62.46
2022-11-25T22:02:17.576Z,61.90
2022-11-25T22:04:47.592Z,62.47
2022-11-25T22:07:18.687Z,62.36
2022-11-25T22:09:48.303Z,62.56
2022-11-25T22:12:26.194Z,61.95
2022-11-25T22:14:56.657Z,61.47
2022-11-25T22:17:26.719Z,61.92
2022-11-25T22:19:57.038Z,62.37
2022-11-25T22:22:28.553Z,61.97
2022-11-25T22:24:58.123Z,62.97
2022-11-25T22:27:36.036Z,62.57
2022-11-25T22:30:06.372Z,62.50
2022-11-25T22:32:36.048Z,62.95
2022-11-25T22:35:07.346Z,62.63
2022-11-25T22:37:38.512Z,63.04
2022-11-25T22:40:08.752Z,62.96
2022-11-25T22:42:38.768Z,63.70
2022-11-25T22:45:10.325Z,63.50
2022-11-25T22:47:41.523Z,63.60
2022-11-25T22:50:18.685Z,63.63
2022-11-25T22:52:49.727Z,63.69
2022-11-25T22:55:20.925Z,64.30
2022-11-25T22:57:51.002Z,63.79
2022-11-25T23:00:23.384Z,63.95
2022-11-25T23:02:53.858Z,63.71
2022-11-25T23:05:30.580Z,64.29
2022-11-25T23:08:04.150Z,64.42
2022-11-25T23:10:33.635Z,64.16
2022-11-25T23:13:03.659Z,64.34
2022-11-25T23:15:33.835Z,63.60
2022-11-25T23:18:04.922Z,63.68
2022-11-25T23:20:35.856Z,63.58
2022-11-25T23:23:13.611Z,63.92
2022-11-25T23:25:43.576Z,64.40
2022-11-25T23:28:13.307Z,63.74
2022-11-25T23:30:46.869Z,63.99
2022-11-25T23:33:19.506Z,64.32
2022-11-25T23:35:49.593Z,64.77
2022-11-25T23:38:23.441Z,64.13
2022-11-25T23:40:53.020Z,64.67
2022-11-25T23:43:22.580Z,64.90
2022-11-25T23:45:53.561Z,64.71
2022-11-25T23:48:25.561Z,64.73
2022-11-25T23:50:55.892Z,64.99
2022-11-25T23:53:29.109Z,65.13
2022-11-25T23:55:59.070Z,64.91
2022-11-25T23:58:29.072Z,66.11
